Time;durP1;ratioP1;P1;durP2;ratioP2;P2;SDS_P1;SDS_P2;PMS_P1;PMS_P2;Temp;Humidity;BMP_temperature;BMP_pressure;BME280_temperature;BME280_humidity;BME280_pressure;Samples;Min_cycle;Max_cycle;Signal;HPM_P1;HPM_P2
2024/04/10 00:01:49;;;;;;;2.90;1.40;;;10.20;59.30;;;12.00;46.65;98207.50;5380497;26;20036;-39
2024/04/10 00:04:17;;;;;;;3.53;1.63;;;10.20;59.20;;;12.00;46.35;98207.50;5377682;26;20036;-39
2024/04/10 00:06:45;;;;;;;4.10;1.57;;;10.20;58.40;;;11.98;46.86;98212.13;5380660;26;20032;-39
2024/04/10 00:09:13;;;;;;;3.40;2.20;;;10.10;59.00;;;11.98;46.44;98214.78;5393066;26;20044;-40
2024/04/10 00:11:41;;;;;;;2.10;1.00;;;10.20;58.50;;;11.98;46.40;98218.31;5380065;26;20376;-39
2024/04/10 00:14:09;;;;;;;3.63;1.33;;;10.10;58.20;;;11.92;46.01;98221.63;5379797;26;20052;-39
2024/04/10 00:16:36;;;;;;;6.27;1.80;;;10.10;57.40;;;11.91;45.91;98233.28;5392443;26;20044;-39
2024/04/10 00:19:06;;;;;;;2.87;1.23;;;10.10;57.70;;;11.91;45.59;98232.44;5378257;26;20492;-39
2024/04/10 00:21:35;;;;;;;2.87;1.30;;;10.10;57.60;;;11.91;45.48;98235.09;5379982;26;20460;-39
2024/04/10 00:24:03;;;;;;;6.43;1.27;;;10.10;57.20;;;11.86;45.24;98243.53;5380834;26;20036;-39
2024/04/10 00:26:31;;;;;;;4.57;1.43;;;10.10;57.10;;;11.82;45.51;98248.38;5380180;26;20378;-39
2024/04/10 00:28:59;;;;;;;5.17;2.20;;;10.10;56.40;;;11.83;45.45;98254.53;5378049;26;20036;-40
2024/04/10 00:31:27;;;;;;;1.80;1.20;;;10.10;56.10;;;11.82;44.87;98263.50;5377758;26;20036;-39
2024/04/10 00:33:54;;;;;;;8.37;1.97;;;10.10;56.00;;;11.83;45.31;98257.19;5379406;26;20036;-39
2024/04/10 00:36:23;;;;;;;3.47;1.40;;;10.00;56.00;;;11.84;45.20;98250.84;5407537;26;20045;-40
2024/04/10 00:38:51;;;;;;;3.33;1.20;;;10.10;55.70;;;11.60;45.10;98249.66;5380094;26;20064;-40
2024/04/10 00:41:19;;;;;;;6.33;1.33;;;10.00;55.60;;;11.59;44.80;98255.13;5379865;26;20039;-42
2024/04/10 00:43:47;;;;;;;3.43;2.20;;;9.80;55.30;;;11.58;44.98;98258.81;5348341;26;20032;-40
2024/04/10 00:46:21;;;;;;;5.90;1.60;;;9.80;55.60;;;11.57;44.90;98251.78;5379588;26;20032;-40
2024/04/10 00:48:50;;;;;;;3.70;1.60;;;9.80;55.80;;;11.42;45.18;98249.66;5379692;26;20055;-39
2024/04/10 00:51:22;;;;;;;2.33;1.10;;;9.70;55.70;;;11.30;45.23;98242.88;5379485;26;20092;-39
2024/04/10 00:53:50;;;;;;;3.33;1.10;;;9.60;56.00;;;11.36;45.14;98252.94;5379380;26;20453;-40
2024/04/10 00:56:18;;;;;;;2.57;1.30;;;9.60;56.10;;;11.28;45.26;98258.16;5407122;26;20032;-39
2024/04/10 00:58:50;;;;;;;2.77;1.70;;;9.60;56.30;;;11.32;45.21;98269.38;5379462;26;20048;-39
2024/04/10 01:01:19;;;;;;;5.47;1.70;;;9.60;56.20;;;11.38;45.19;98269.63;5380751;26;20040;-39
2024/04/10 01:03:46;;;;;;;4.50;1.33;;;9.70;56.10;;;11.42;45.09;98267.50;5380308;26;20036;-39
2024/04/10 01:06:14;;;;;;;3.83;1.13;;;9.70;56.10;;;11.39;45.14;98265.94;5379748;26;20036;-39
2024/04/10 01:08:42;;;;;;;4.93;1.40;;;9.60;56.10;;;11.31;45.23;98260.53;5378669;26;20032;-41
2024/04/10 01:11:10;;;;;;;3.80;1.13;;;9.60;56.10;;;11.23;45.14;98263.13;5379514;26;20032;-39
2024/04/10 01:13:39;;;;;;;2.83;0.97;;;9.50;56.60;;;11.25;45.29;98262.97;5378536;26;20365;-39
2024/04/10 01:16:07;;;;;;;3.47;1.20;;;9.40;56.80;;;11.27;45.27;98272.50;5379143;26;20036;-39
2024/04/10 01:18:35;;;;;;;2.83;1.30;;;9.50;56.80;;;11.29;44.94;98262.53;5379244;26;20039;-39
2024/04/10 01:21:04;;;;;;;4.30;0.80;;;9.50;56.60;;;11.28;44.98;98274.16;5392337;26;20028;-39
2024/04/10 01:23:31;;;;;;;3.57;1.50;;;9.50;56.60;;;11.25;45.08;98274.47;5391599;26;20039;-39
2024/04/10 01:25:59;;;;;;;2.17;1.20;;;9.40;56.70;;;11.22;45.23;98285.41;5378832;26;20032;-39
2024/04/10 01:28:27;;;;;;;6.60;1.63;;;9.50;56.80;;;11.23;45.28;98282.63;5377178;26;20480;-39
2024/04/10 01:30:55;;;;;;;4.33;0.97;;;9.40;56.70;;;11.12;45.33;98287.31;5392221;26;20040;-39
2024/04/10 01:33:24;;;;;;;3.00;1.23;;;9.40;56.90;;;11.09;45.25;98293.78;5378855;26;20032;-39
2024/04/10 01:35:52;;;;;;;4.57;1.23;;;9.40;57.10;;;11.08;45.51;98304.59;5378742;26;20036;-39
2024/04/10 01:38:23;;;;;;;5.10;0.97;;;9.30;57.40;;;11.03;45.60;98308.53;5379320;26;20048;-39
2024/04/10 01:40:51;;;;;;;3.47;1.37;;;9.30;57.70;;;11.02;45.76;98306.84;5378918;26;20032;-39
2024/04/10 01:43:19;;;;;;;1.70;0.90;;;9.20;57.70;;;11.02;45.62;98319.34;5378156;26;20241;-40
2024/04/10 01:45:46;;;;;;;3.83;1.67;;;9.20;57.70;;;11.01;45.97;98317.66;5377210;26;20029;-40
2024/04/10 01:48:15;;;;;;;5.30;1.20;;;9.20;57.80;;;10.98;46.00;98317.97;5378913;26;20053;-39
2024/04/10 01:50:44;;;;;;;3.27;1.23;;;9.20;57.80;;;11.00;45.87;98321.31;5378433;26;20044;-39
2024/04/10 01:53:12;;;;;;;7.57;1.27;;;9.20;57.90;;;10.98;46.00;98329.44;5378530;26;20341;-39
2024/04/10 01:55:40;;;;;;;3.83;1.47;;;9.20;58.20;;;10.98;45.91;98323.28;5378761;26;20032;-40
2024/04/10 01:58:08;;;;;;;3.20;1.20;;;9.20;58.30;;;10.93;46.04;98322.88;5378836;26;20371;-39
2024/04/10 02:00:35;;;;;;;3.27;1.97;;;9.10;58.50;;;10.78;46.25;98326.03;5378336;26;20037;-39
2024/04/10 02:03:04;;;;;;;3.27;1.07;;;9.10;58.70;;;10.78;46.34;98331.34;5378240;26;20365;-39
2024/04/10 02:05:31;;;;;;;5.50;1.20;;;9.00;58.60;;;10.85;46.36;98336.94;5378783;26;20040;-39
2024/04/10 02:08:00;;;;;;;1.80;1.23;;;9.10;58.50;;;10.89;46.47;98338.31;5379309;26;20036;-39
2024/04/10 02:10:27;;;;;;;6.20;1.77;;;9.20;58.60;;;10.88;46.46;98343.81;5378448;26;20043;-39
2024/04/10 02:12:55;;;;;;;4.53;1.40;;;9.10;58.50;;;10.84;46.30;98345.91;5378290;26;20045;-40
2024/04/10 02:15:23;;;;;;;2.77;1.10;;;9.10;58.60;;;10.85;46.55;98355.56;5378692;26;20033;-39
2024/04/10 02:17:51;;;;;;;2.33;1.17;;;9.20;59.10;;;10.86;46.37;98367.06;5378853;26;20036;-39
2024/04/10 02:20:21;;;;;;;3.97;1.50;;;9.20;58.40;;;10.89;46.21;98358.78;5379244;26;20028;-39
2024/04/10 02:22:49;;;;;;;1.87;1.10;;;9.20;58.30;;;10.91;46.41;98362.16;5375860;26;20036;-40
2024/04/10 02:25:17;;;;;;;2.47;1.10;;;9.20;58.50;;;10.86;46.69;98361.72;5406208;26;20036;-40
2024/04/10 02:27:45;;;;;;;2.13;1.00;;;9.10;59.70;;;10.90;46.33;98358.66;5378551;26;20040;-39
2024/04/10 02:30:13;;;;;;;2.43;1.00;;;9.10;59.10;;;10.93;46.56;98362.84;5378346;26;20352;-40
2024/04/10 02:32:40;;;;;;;2.67;1.30;;;9.10;59.10;;;10.96;46.56;98374.03;5376030;26;20605;-39
2024/04/10 02:35:08;;;;;;;2.00;1.10;;;9.20;59.10;;;10.99;46.41;98375.56;5364448;26;20051;-40
2024/04/10 02:37:36;;;;;;;2.17;1.00;;;9.20;59.10;;;11.00;46.55;98375.44;5376210;26;20036;-40
2024/04/10 02:40:05;;;;;;;3.97;1.10;;;9.20;59.00;;;11.00;46.68;98377.25;5378207;26;20048;-40
2024/04/10 02:42:34;;;;;;;2.87;1.17;;;9.20;59.00;;;11.02;46.36;98373.47;5376169;26;20035;-40
2024/04/10 02:45:02;;;;;;;3.80;1.33;;;9.20;59.10;;;11.03;46.25;98375.16;5377772;26;20059;-40
2024/04/10 02:47:29;;;;;;;2.37;0.90;;;9.20;59.20;;;11.03;46.38;98377.81;5378577;26;20036;-40
2024/04/10 02:49:57;;;;;;;3.33;1.90;;;9.20;59.40;;;10.99;46.52;98375.56;5378163;26;20033;-40
2024/04/10 02:52:25;;;;;;;2.70;1.60;;;9.10;59.60;;;10.99;46.90;98371.09;5377781;26;20032;-40
2024/04/10 02:54:53;;;;;;;2.03;1.10;;;9.20;59.80;;;11.01;46.68;98377.13;5376224;26;20380;-40
2024/04/10 02:57:21;;;;;;;1.20;0.83;;;9.20;59.70;;;11.01;46.51;98366.47;5377926;26;20032;-40
2024/04/10 02:59:48;;;;;;;6.13;1.43;;;9.20;59.70;;;11.01;46.98;98378.94;5378161;26;20044;-40
2024/04/10 03:02:16;;;;;;;5.40;1.47;;;9.20;59.70;;;11.01;46.77;98377.13;5377944;26;20032;-40
2024/04/10 03:04:45;;;;;;;4.43;1.30;;;9.20;59.70;;;11.06;47.12;98383.84;5377032;26;20036;-40
2024/04/10 03:07:15;;;;;;;6.13;1.10;;;9.20;59.90;;;11.06;46.85;98387.34;5377919;26;20041;-41
2024/04/10 03:09:42;;;;;;;4.50;1.70;;;9.20;60.00;;;11.07;47.03;98388.16;5377918;26;20036;-40
2024/04/10 03:12:11;;;;;;;5.37;1.40;;;9.20;60.10;;;11.06;47.06;98397.16;5377904;26;20033;-40
2024/04/10 03:14:42;;;;;;;3.93;1.20;;;9.30;60.30;;;11.05;46.92;98383.00;5377418;26;20032;-40
2024/04/10 03:17:11;;;;;;;4.07;1.40;;;9.20;60.40;;;11.09;47.11;98395.03;5377423;26;20024;-40
2024/04/10 03:19:39;;;;;;;2.33;1.10;;;9.30;61.50;;;11.11;47.27;98390.41;5375264;26;20036;-40
2024/04/10 03:22:09;;;;;;;2.77;1.33;;;9.30;60.50;;;10.98;47.92;98395.22;5377446;26;20530;-40
2024/04/10 03:24:37;;;;;;;3.97;1.13;;;9.10;61.60;;;10.88;47.75;98391.75;5377312;26;20040;-40
2024/04/10 03:27:05;;;;;;;2.53;1.50;;;8.90;62.10;;;10.93;47.91;98392.97;5377913;26;20028;-40
2024/04/10 03:29:32;;;;;;;2.40;1.17;;;9.00;61.80;;;10.82;47.90;98398.50;5376819;26;20041;-40
2024/04/10 03:32:01;;;;;;;1.77;1.10;;;8.90;62.70;;;10.71;48.67;98401.31;5403596;26;20034;-40
2024/04/10 03:34:29;;;;;;;3.07;1.50;;;8.90;62.90;;;10.70;48.22;98405.81;5377125;26;20032;-40
2024/04/10 03:36:57;;;;;;;3.87;1.57;;;8.90;63.20;;;10.66;48.68;98417.72;5377599;26;20032;-40
2024/04/10 03:39:24;;;;;;;4.17;1.20;;;8.80;63.40;;;10.66;48.30;98415.06;5404717;26;20040;-40
2024/04/10 03:41:52;;;;;;;2.80;1.50;;;8.80;63.50;;;10.60;48.95;98426.28;5377512;26;20378;-40
2024/04/10 03:44:20;;;;;;;2.33;1.43;;;8.80;63.70;;;10.49;49.41;98419.31;5377277;26;20527;-40
2024/04/10 03:46:48;;;;;;;3.33;1.40;;;8.80;63.90;;;10.42;49.18;98421.66;5376896;26;20036;-40
2024/04/10 03:49:16;;;;;;;4.00;1.27;;;8.70;64.40;;;10.46;49.11;98413.41;5363215;26;20040;-40
2024/04/10 03:51:47;;;;;;;2.50;1.20;;;8.70;64.20;;;10.46;49.25;98427.56;5377273;26;20095;-40
2024/04/10 03:54:14;;;;;;;4.87;1.50;;;8.70;64.00;;;10.40;49.44;98426.28;5362034;26;20047;-40
2024/04/10 03:56:42;;;;;;;6.27;1.97;;;8.80;64.10;;;10.42;49.65;98434.97;5375196;26;20032;-39
2024/04/10 03:59:13;;;;;;;5.53;1.40;;;8.80;64.20;;;10.44;49.49;98426.88;5376970;26;20067;-40
2024/04/10 04:01:42;;;;;;;4.73;1.80;;;8.80;63.80;;;10.40;49.61;98430.78;5374315;26;20036;-39
2024/04/10 04:04:10;;;;;;;4.90;1.53;;;8.70;64.30;;;10.43;49.69;98438.50;5404472;26;20051;-39
2024/04/10 04:06:39;;;;;;;3.53;1.97;;;8.70;64.20;;;10.36;49.94;98448.03;5379683;26;20525;-39
2024/04/10 04:09:08;;;;;;;3.57;1.20;;;8.70;64.80;;;10.42;49.86;98440.31;5380329;26;20036;-39
2024/04/10 04:11:36;;;;;;;6.40;1.43;;;8.70;64.50;;;10.44;49.45;98445.50;5379785;26;20040;-40
2024/04/10 04:14:04;;;;;;;2.73;1.23;;;8.70;64.20;;;10.44;49.24;98446.31;5379909;26;20028;-39
2024/04/10 04:16:32;;;;;;;2.00;1.30;;;8.70;64.20;;;10.34;49.97;98457.97;5380392;26;20040;-39
2024/04/10 04:19:03;;;;;;;3.07;1.50;;;8.60;64.50;;;10.37;49.58;98453.22;5380382;26;20044;-40
2024/04/10 04:21:31;;;;;;;4.43;1.30;;;8.70;64.50;;;10.46;49.68;98461.34;5380143;26;20036;-40
2024/04/10 04:23:59;;;;;;;3.57;1.30;;;8.70;64.40;;;10.39;49.60;98464.56;5377611;26;20491;-40
2024/04/10 04:26:27;;;;;;;2.17;1.60;;;8.70;64.50;;;10.40;49.81;98463.56;5380217;26;20487;-40
2024/04/10 04:28:55;;;;;;;7.10;1.40;;;8.70;64.30;;;10.46;49.52;98464.81;5380102;26;20036;-40
2024/04/10 04:31:23;;;;;;;9.07;2.17;;;8.70;64.20;;;10.39;49.89;98474.34;5379796;26;20028;-40
2024/04/10 04:33:54;;;;;;;4.23;1.07;;;8.70;64.60;;;10.45;49.43;98484.47;5379726;26;20036;-40
2024/04/10 04:36:22;;;;;;;4.87;1.53;;;8.70;64.20;;;10.44;49.41;98478.28;5379922;26;20045;-40
2024/04/10 04:38:50;;;;;;;2.47;1.40;;;8.80;64.30;;;10.48;49.50;98480.66;5380426;26;20044;-40
2024/04/10 04:41:18;;;;;;;6.77;1.80;;;8.80;64.00;;;10.46;49.62;98482.63;5392431;26;20028;-40
2024/04/10 04:43:46;;;;;;;6.73;1.23;;;8.70;64.60;;;10.51;49.56;98488.38;5379757;26;20052;-40
2024/04/10 04:46:17;;;;;;;4.47;1.30;;;8.80;63.80;;;10.51;49.38;98496.38;5392634;26;20044;-40
2024/04/10 04:48:45;;;;;;;5.07;1.40;;;8.70;64.10;;;10.49;48.93;98492.97;5380001;26;20024;-40
2024/04/10 04:51:12;;;;;;;5.23;2.20;;;8.70;64.30;;;10.48;49.21;98488.66;5378234;26;20411;-40
2024/04/10 04:53:42;;;;;;;7.23;1.70;;;8.70;64.10;;;10.48;49.29;98492.16;5379832;26;20044;-40
2024/04/10 04:56:09;;;;;;;3.47;1.53;;;8.70;64.00;;;10.45;49.27;98497.78;5363221;26;20040;-40
2024/04/10 04:58:37;;;;;;;6.13;1.50;;;8.70;64.40;;;10.43;49.60;98499.72;5380125;26;20057;-40
2024/04/10 05:01:07;;;;;;;7.73;1.87;;;8.60;64.30;;;10.42;49.41;98495.38;5379676;26;20039;-40
2024/04/10 05:06:21;;;;;;;5.67;1.43;;;8.60;64.70;;;10.42;49.17;98512.19;5363620;26;20019;-40
2024/04/10 05:08:49;;;;;;;3.43;1.00;;;8.50;64.70;;;10.40;49.43;98526.63;5379467;26;20037;-40
2024/04/10 05:11:19;;;;;;;11.20;2.13;;;8.50;65.90;;;10.36;49.36;98526.03;5379702;26;20032;-41
2024/04/10 05:13:47;;;;;;;5.20;1.80;;;8.40;65.10;;;10.35;49.26;98529.72;5378085;26;20032;-40
2024/04/10 05:16:16;;;;;;;2.40;2.00;;;8.40;66.40;;;10.28;49.59;98528.53;5379469;26;20144;-41
2024/04/10 05:18:45;;;;;;;3.20;1.50;;;8.40;65.40;;;10.17;49.98;98536.63;5376936;26;20040;-41
2024/04/10 05:21:13;;;;;;;5.57;1.43;;;8.30;65.90;;;10.16;49.82;98543.78;5377449;26;20036;-43
2024/04/10 05:23:41;;;;;;;3.60;2.70;;;8.30;66.20;;;10.18;49.75;98547.16;5376728;26;20032;-40
2024/04/10 05:26:08;;;;;;;4.10;1.57;;;8.30;65.80;;;10.21;49.61;98549.50;5378864;26;20472;-40
2024/04/10 05:28:36;;;;;;;4.43;2.33;;;8.40;65.50;;;10.23;49.95;98550.22;5379223;26;20361;-40
2024/04/10 05:31:09;;;;;;;6.07;1.87;;;8.40;65.70;;;10.25;49.84;98550.09;5378916;26;20033;-40
2024/04/10 05:33:37;;;;;;;3.47;1.20;;;8.40;65.60;;;10.30;49.87;98555.03;5376015;26;20047;-41
2024/04/10 05:36:06;;;;;;;2.53;1.67;;;8.40;65.60;;;10.33;49.83;98563.59;5378533;26;20036;-39
2024/04/10 05:38:34;;;;;;;5.80;2.60;;;8.50;65.60;;;10.33;49.81;98565.41;5378925;26;20032;-38
2024/04/10 05:41:05;;;;;;;5.90;2.37;;;8.50;65.30;;;10.33;49.83;98565.41;5379559;26;20032;-39
2024/04/10 05:43:33;;;;;;;6.47;1.63;;;8.50;65.50;;;10.34;49.81;98564.44;5378634;26;20048;-39
2024/04/10 05:46:00;;;;;;;7.43;2.23;;;8.50;65.40;;;10.32;50.06;98575.22;5406203;26;20424;-39
2024/04/10 05:48:28;;;;;;;7.97;1.57;;;8.50;65.70;;;10.31;49.88;98565.53;5378938;26;20357;-39
2024/04/10 05:51:01;;;;;;;6.23;1.43;;;8.40;65.90;;;10.33;50.06;98565.41;5379231;26;20152;-39
2024/04/10 05:53:33;;;;;;;5.03;1.80;;;8.50;65.50;;;10.33;49.81;98576.91;5365449;26;20036;-39
2024/04/10 05:56:04;;;;;;;5.23;1.63;;;8.50;65.50;;;10.31;49.89;98578.00;5378406;26;20038;-39
2024/04/10 05:58:35;;;;;;;5.93;1.87;;;8.50;65.50;;;10.33;49.78;98587.56;5376619;26;20044;-39
2024/04/10 06:01:09;;;;;;;5.67;2.00;;;8.50;65.60;;;10.36;49.93;98587.28;5406231;26;20028;-39
2024/04/10 06:03:37;;;;;;;3.23;1.80;;;8.60;65.20;;;10.37;49.70;98599.63;5378418;26;20353;-39
2024/04/10 06:06:12;;;;;;;6.73;2.00;;;8.60;65.20;;;10.34;49.95;98613.19;5378230;26;20040;-40
2024/04/10 06:08:41;;;;;;;8.23;3.67;;;8.50;65.50;;;10.35;50.08;98614.00;5378600;26;20075;-40
2024/04/10 06:11:09;;;;;;;4.87;2.00;;;8.50;66.20;;;10.37;50.01;98606.72;5378251;26;20028;-39
2024/04/10 06:13:38;;;;;;;6.97;2.70;;;8.60;65.30;;;10.34;50.14;98607.84;5376294;26;20040;-43
2024/04/10 06:16:06;;;;;;;5.07;1.80;;;8.50;65.60;;;10.36;49.92;98610.38;5378566;26;20036;-39
2024/04/10 06:18:34;;;;;;;4.23;1.70;;;8.60;65.70;;;10.35;50.27;98622.88;5376407;26;20059;-39
2024/04/10 06:21:03;;;;;;;8.20;2.13;;;8.50;65.80;;;10.36;50.04;98624.53;5378910;26;20040;-39
2024/04/10 06:23:32;;;;;;;4.57;1.80;;;8.50;65.50;;;10.39;50.12;98624.28;5376009;26;20048;-39
2024/04/10 06:26:00;;;;;;;7.87;1.83;;;8.60;65.40;;;10.39;50.09;98623.41;5378643;26;20115;-39
2024/04/10 06:28:30;;;;;;;3.97;1.63;;;8.60;65.10;;;10.33;50.22;98635.47;5375494;26;20345;-39
2024/04/10 06:31:03;;;;;;;3.97;1.70;;;8.60;65.10;;;10.32;49.95;98625.78;5375684;26;20028;-39
2024/04/10 06:33:31;;;;;;;6.20;1.87;;;8.50;65.30;;;10.33;49.97;98632.81;5360707;26;20035;-39
2024/04/10 06:36:04;;;;;;;6.97;1.80;;;8.50;65.20;;;10.28;50.09;98629.66;5378515;26;20036;-39
2024/04/10 06:38:32;;;;;;;6.97;2.33;;;8.50;66.00;;;10.28;50.33;98626.16;5364420;26;20455;-39
2024/04/10 06:41:03;;;;;;;4.80;1.50;;;8.60;65.30;;;10.32;49.94;98640.91;5378472;26;20036;-39
2024/04/10 06:43:33;;;;;;;7.20;2.17;;;8.50;65.00;;;10.27;50.42;98638.63;5362105;26;20028;-39
2024/04/10 06:46:03;;;;;;;4.93;2.10;;;8.50;65.70;;;10.25;50.50;98640.56;5378117;26;20036;-39
2024/04/10 06:50:03;;;;;;;4.10;1.77;;;8.50;66.20;;;10.29;50.25;98641.97;5448197;26;20317;-40
2024/04/10 06:52:31;;;;;;;6.37;1.97;;;8.40;66.30;;;10.22;50.64;98644.34;5406219;26;20026;-40
2024/04/10 06:54:58;;;;;;;6.20;1.90;;;8.40;67.00;;;10.10;51.14;98652.56;5410009;26;20004;-39
2024/04/10 06:57:26;;;;;;;5.63;1.77;;;8.40;67.10;;;10.09;51.01;98657.03;5417094;26;20021;-39
2024/04/10 06:59:54;;;;;;;9.87;3.33;;;8.40;67.10;;;10.08;50.95;98666.00;5404204;26;20003;-39
2024/04/10 07:02:24;;;;;;;4.20;1.80;;;8.30;67.00;;;10.02;51.28;98655.88;5407116;26;20017;-40
2024/04/10 07:04:51;;;;;;;7.47;2.67;;;8.30;67.40;;;10.07;51.46;98664.31;5404910;26;20018;-39
2024/04/10 07:07:23;;;;;;;17.77;3.10;;;8.40;67.20;;;10.05;51.37;98666.28;5396898;26;20375;-40
2024/04/10 07:09:54;;;;;;;10.13;2.03;;;8.40;67.20;;;10.04;51.34;98669.88;5411127;26;20004;-39
2024/04/10 07:12:21;;;;;;;9.60;2.53;;;8.40;66.80;;;9.95;51.64;98687.50;5405910;26;20013;-40
2024/04/10 07:14:49;;;;;;;7.63;2.73;;;8.40;66.80;;;9.94;51.65;98690.28;5408927;26;20011;-39
2024/04/10 07:17:17;;;;;;;5.17;3.07;;;8.40;67.10;;;9.99;51.81;98686.25;5396999;26;20016;-40
2024/04/10 07:19:45;;;;;;;9.83;2.33;;;8.40;67.30;;;9.97;51.71;98682.88;5404895;26;20018;-40
2024/04/10 07:22:13;;;;;;;5.63;3.83;;;8.30;67.30;;;10.09;51.44;98682.81;5404754;26;20004;-40
2024/04/10 07:24:42;;;;;;;7.00;2.27;;;8.40;67.30;;;10.21;51.25;98689.72;5401351;26;20022;-40
2024/04/10 07:27:11;;;;;;;7.33;2.10;;;8.60;66.50;;;10.12;51.56;98699.38;5408110;26;20213;-39
2024/04/10 07:29:38;;;;;;;7.53;2.23;;;8.60;66.40;;;10.12;51.79;98693.16;5405247;26;20022;-40
2024/04/10 07:32:07;;;;;;;7.23;2.60;;;8.60;66.70;;;10.23;51.75;98704.56;5407058;26;20004;-39
2024/04/10 07:34:34;;;;;;;9.63;2.70;;;8.70;66.40;;;10.25;51.56;98701.78;5403326;26;20378;-39
2024/04/10 07:37:03;;;;;;;10.83;4.07;;;8.70;66.30;;;10.30;51.75;98712.91;5424074;26;20103;-39
2024/04/10 07:39:31;;;;;;;6.77;2.23;;;8.80;66.60;;;10.31;51.62;98706.59;5401221;26;20015;-39
2024/04/10 07:41:58;;;;;;;5.27;2.10;;;8.80;66.00;;;10.39;51.86;98714.78;5397855;26;20361;-39
2024/04/10 07:44:27;;;;;;;5.07;2.00;;;8.90;66.00;;;10.50;51.56;98716.50;5418273;26;20017;-39
2024/04/10 07:46:56;;;;;;;8.67;2.07;;;9.00;65.20;;;10.51;51.26;98720.00;5406183;26;20006;-39
2024/04/10 07:49:24;;;;;;;10.13;2.60;;;9.00;65.00;;;10.50;51.21;98728.97;5417585;26;20029;-40
2024/04/10 07:51:52;;;;;;;7.40;3.13;;;8.90;64.70;;;10.57;50.73;98727.47;5403493;26;20021;-39
2024/04/10 07:54:20;;;;;;;7.33;2.17;;;8.90;64.70;;;10.54;50.87;98738.38;5420221;26;20007;-39
2024/04/10 07:56:48;;;;;;;8.03;2.33;;;8.80;64.40;;;10.49;50.95;98746.78;5404382;26;20004;-39
2024/04/10 07:59:16;;;;;;;10.47;2.30;;;8.80;65.00;;;10.50;50.86;98742.28;5415293;26;20019;-40
2024/04/10 08:01:44;;;;;;;7.57;2.50;;;8.90;65.30;;;10.51;50.89;98743.97;5396502;26;20467;-39
2024/04/10 08:04:11;;;;;;;6.00;3.33;;;8.80;64.90;;;10.43;50.85;98744.66;5395296;26;20063;-39
2024/04/10 08:06:39;;;;;;;7.40;2.83;;;8.80;64.90;;;10.36;50.93;98752.31;5401330;26;20016;-40
2024/04/10 08:09:07;;;;;;;6.27;2.50;;;8.70;65.30;;;10.47;50.89;98742.53;5388523;26;20470;-40
2024/04/10 08:11:35;;;;;;;6.50;2.30;;;8.80;65.50;;;10.58;50.86;98753.94;5384033;26;20004;-40
2024/04/10 08:14:03;;;;;;;7.30;3.17;;;8.90;64.90;;;10.51;51.18;98760.78;5387646;26;20367;-40
2024/04/10 08:16:32;;;;;;;11.00;4.43;;;8.90;64.80;;;10.48;51.00;98766.38;5383903;26;20014;-40
2024/04/10 08:19:00;;;;;;;8.03;3.70;;;8.80;65.20;;;10.53;51.09;98763.31;5394944;26;20014;-40
2024/04/10 08:21:29;;;;;;;11.53;3.40;;;8.90;65.00;;;10.56;51.26;98763.03;5389627;26;20343;-40
2024/04/10 08:23:57;;;;;;;8.10;3.87;;;9.00;64.80;;;10.73;50.66;98757.06;5392608;26;20022;-40
2024/04/10 08:26:24;;;;;;;6.83;2.40;;;9.20;64.50;;;10.84;50.27;98767.63;5383711;26;20000;-40
2024/04/10 08:28:53;;;;;;;8.87;2.80;;;9.40;62.70;;;10.90;50.04;98765.41;5394783;26;20003;-45
2024/04/10 08:31:24;;;;;;;6.87;2.80;;;9.40;62.40;;;10.98;49.60;98765.56;5383088;26;20000;-39
2024/04/10 08:33:52;;;;;;;7.03;2.77;;;9.50;61.40;;;11.05;49.37;98774.72;5393690;26;20010;-39
2024/04/10 08:36:23;;;;;;;6.67;2.80;;;9.50;61.60;;;11.16;49.33;98781.72;5379408;26;20010;-40
2024/04/10 08:38:52;;;;;;;9.70;3.40;;;9.70;61.50;;;11.16;48.74;98768.41;5388212;26;20634;-40
2024/04/10 08:41:21;;;;;;;6.53;2.97;;;9.70;60.20;;;11.16;49.22;98768.41;5392732;26;20000;-39
2024/04/10 08:43:51;;;;;;;9.57;2.93;;;9.70;61.50;;;11.10;49.12;98777.78;5384956;26;20033;-39
2024/04/10 08:46:23;;;;;;;9.27;3.30;;;9.60;61.10;;;11.01;49.21;98776.81;5380873;26;20010;-39
2024/04/10 08:48:56;;;;;;;11.33;3.67;;;9.50;60.90;;;11.10;49.31;98779.63;5393055;26;20338;-39
2024/04/10 08:51:25;;;;;;;7.27;3.00;;;9.60;60.50;;;11.11;49.17;98779.50;5390764;26;20011;-40
2024/04/10 08:53:55;;;;;;;4.20;2.47;;;9.70;60.70;;;11.24;48.75;98779.22;5393018;26;20018;-40
2024/04/10 08:56:23;;;;;;;5.60;2.63;;;9.80;60.50;;;11.09;48.84;98785.91;5390488;26;20465;-40
2024/04/10 08:58:54;;;;;;;9.77;2.60;;;9.80;59.40;;;11.09;48.19;98789.44;5402753;26;20014;-39
2024/04/10 09:01:26;;;;;;;5.93;2.50;;;9.70;58.50;;;11.17;48.29;98783.44;5403523;26;20019;-39
2024/04/10 09:03:55;;;;;;;5.43;2.08;;;9.80;58.10;;;11.16;48.03;98777.25;5403861;26;20610;-40
2024/04/10 09:06:23;;;;;;;8.33;2.43;;;9.80;58.60;;;11.05;48.09;98785.38;5398088;26;20467;-39
2024/04/10 09:08:59;;;;;;;5.43;2.30;;;9.80;58.20;;;11.02;47.24;98785.63;5404303;26;20017;-40
2024/04/10 09:11:27;;;;;;;6.90;3.93;;;9.70;56.90;;;11.16;47.60;98790.56;5407270;26;20205;-40
2024/04/10 09:14:07;;;;;;;8.03;3.00;;;9.80;57.50;;;11.10;47.22;98787.63;5407825;26;20479;-39
2024/04/10 09:16:35;;;;;;;4.93;2.23;;;9.90;57.10;;;11.34;47.70;98779.22;5401841;26;20423;-39
2024/04/10 09:19:22;;;;;;;4.90;2.43;;;10.00;57.90;;;11.37;47.27;98784.31;5405116;26;20018;-39
2024/04/10 09:22:00;;;;;;;7.70;2.27;;;10.00;57.50;;;11.47;47.14;98785.16;5394225;26;20047;-39
2024/04/10 09:24:29;;;;;;;6.80;2.20;;;10.20;57.30;;;11.48;45.82;98788.69;5403151;26;20114;-39
2024/04/10 09:26:58;;;;;;;6.83;2.03;;;10.20;53.70;;;11.50;45.23;98802.72;5406063;26;20011;-39
2024/04/10 09:29:29;;;;;;;9.47;2.77;;;10.20;54.00;;;11.54;45.03;98809.44;5402337;26;20004;-39
2024/04/10 09:32:04;;;;;;;4.53;1.87;;;10.20;52.90;;;11.56;44.83;98818.16;5392890;26;20015;-39
2024/04/10 09:34:34;;;;;;;4.27;1.73;;;10.20;51.90;;;11.69;44.48;98816.06;5399263;26;19999;-39
2024/04/10 09:37:08;;;;;;;6.83;2.23;;;10.40;51.50;;;11.60;43.86;98816.88;5402333;26;20003;-39
2024/04/10 09:39:37;;;;;;;3.90;1.97;;;10.40;51.20;;;11.66;44.38;98808.31;5402941;26;20015;-39
2024/04/10 09:42:24;;;;;;;4.70;2.20;;;10.40;52.60;;;11.74;44.81;98815.63;5384639;26;20604;-39
2024/04/10 09:45:06;;;;;;;5.73;1.90;;;10.50;53.00;;;11.93;44.99;98812.16;5395656;26;20340;-39
2024/04/10 09:47:37;;;;;;;5.80;2.33;;;10.70;53.20;;;12.01;43.63;98822.97;5405791;26;20052;-39
2024/04/10 09:50:12;;;;;;;5.70;2.10;;;10.70;51.00;;;12.16;43.78;98821.53;5376704;26;20036;-39
2024/04/10 09:52:42;;;;;;;5.27;1.90;;;10.80;51.60;;;12.30;43.69;98820.25;5378077;26;20024;-39
2024/04/10 09:55:13;;;;;;;6.57;2.30;;;10.90;51.80;;;12.16;42.96;98824.22;5401992;26;20027;-39
2024/04/10 09:57:43;;;;;;;3.47;2.00;;;10.90;49.90;;;12.12;42.56;98819.31;5378592;26;20055;-39
2024/04/10 10:00:12;;;;;;;7.65;2.80;;;10.90;48.10;;;12.13;41.72;98823.66;5376682;26;20040;-39
2024/04/10 10:02:40;;;;;;;5.10;2.23;;;10.80;48.30;;;12.12;42.54;98821.97;5412170;26;20031;-39
2024/04/10 10:05:20;;;;;;;4.77;1.73;;;10.70;49.80;;;12.10;42.55;98830.13;5413761;26;20023;-39
2024/04/10 10:07:50;;;;;;;3.08;2.13;;;10.70;50.10;;;11.96;41.82;98825.19;5395352;26;20039;-39
2024/04/10 10:10:18;;;;;;;5.93;2.40;;;10.70;47.70;;;12.10;41.58;98816.78;5413091;26;20038;-38
2024/04/10 10:12:48;;;;;;;4.47;1.80;;;10.70;47.10;;;12.28;42.15;98824.06;5413904;26;20076;-38
2024/04/10 10:15:21;;;;;;;7.75;2.05;;;10.80;48.30;;;12.14;41.59;98823.50;5414422;26;20033;-38
2024/04/10 10:17:52;;;;;;;4.20;1.42;;;10.90;48.10;;;12.30;42.46;98822.09;5413958;26;20352;-39
2024/04/10 10:20:32;;;;;;;6.38;1.80;;;11.00;49.30;;;12.43;41.82;98816.41;5413714;26;20027;-39
2024/04/10 10:23:02;;;;;;;6.30;1.90;;;11.10;48.50;;;12.47;41.77;98823.19;5411757;26;20048;-39
2024/04/10 10:25:30;;;;;;;4.47;2.00;;;11.10;47.60;;;12.47;40.91;98831.19;5413582;26;20343;-39
2024/04/10 10:28:07;;;;;;;4.10;2.10;;;11.10;48.20;;;12.45;40.60;98834.00;5411680;26;20047;-39
2024/04/10 10:30:35;;;;;;;3.53;1.73;;;11.00;46.80;;;12.47;40.78;98825.84;5414300;26;20031;-38
2024/04/10 10:33:07;;;;;;;7.50;2.10;;;11.00;47.50;;;12.49;41.06;98832.72;5412933;26;20039;-38
2024/04/10 10:35:35;;;;;;;3.33;1.90;;;11.00;48.20;;;12.64;40.93;98833.13;5413487;26;20055;-38
2024/04/10 10:38:04;;;;;;;3.92;2.08;;;11.20;48.20;;;12.65;40.54;98832.13;5413044;26;20040;-39